sensor_id;sensor_type;location;lat;lon;timestamp;P1;durP1;ratioP1;P2;durP2;ratioP2
25107;SDS011;13090;53.422;7.670;2023-04-12T00:02:50;8.07;;;2.28;;
25107;SDS011;13090;53.422;7.670;2023-04-12T00:07:52;7.82;;;2.15;;
25107;SDS011;13090;53.422;7.670;2023-04-12T00:12:56;6.85;;;2.35;;
25107;SDS011;13090;53.422;7.670;2023-04-12T00:17:58;7.28;;;2.08;;
25107;SDS011;13090;53.422;7.670;2023-04-12T00:23:00;6.88;;;2.20;;
25107;SDS011;13090;53.422;7.670;2023-04-12T00:28:04;7.65;;;2.00;;
25107;SDS011;13090;53.422;7.670;2023-04-12T00:33:06;8.32;;;1.98;;
25107;SDS011;13090;53.422;7.670;2023-04-12T00:38:09;10.13;;;2.22;;
25107;SDS011;13090;53.422;7.670;2023-04-12T00:43:13;9.07;;;2.08;;
25107;SDS011;13090;53.422;7.670;2023-04-12T00:48:15;6.10;;;1.83;;
25107;SDS011;13090;53.422;7.670;2023-04-12T00:53:17;6.47;;;2.00;;
25107;SDS011;13090;53.422;7.670;2023-04-12T00:58:23;14.07;;;2.63;;
25107;SDS011;13090;53.422;7.670;2023-04-12T01:03:26;11.82;;;1.90;;
25107;SDS011;13090;53.422;7.670;2023-04-12T01:08:31;9.15;;;1.90;;
25107;SDS011;13090;53.422;7.670;2023-04-12T01:13:42;6.80;;;1.92;;
25107;SDS011;13090;53.422;7.670;2023-04-12T01:18:49;6.43;;;1.70;;
25107;SDS011;13090;53.422;7.670;2023-04-12T01:24:05;4.07;;;1.60;;
25107;SDS011;13090;53.422;7.670;2023-04-12T01:29:23;9.13;;;2.22;;
25107;SDS011;13090;53.422;7.670;2023-04-12T01:34:29;7.68;;;1.80;;
25107;SDS011;13090;53.422;7.670;2023-04-12T01:39:33;7.47;;;1.20;;
25107;SDS011;13090;53.422;7.670;2023-04-12T01:44:37;6.82;;;2.10;;
25107;SDS011;13090;53.422;7.670;2023-04-12T01:49:42;3.67;;;1.73;;
25107;SDS011;13090;53.422;7.670;2023-04-12T01:54:53;5.95;;;1.92;;
25107;SDS011;13090;53.422;7.670;2023-04-12T01:59:59;6.90;;;1.85;;
25107;SDS011;13090;53.422;7.670;2023-04-12T02:05:04;3.50;;;1.92;;
25107;SDS011;13090;53.422;7.670;2023-04-12T02:10:11;6.93;;;2.00;;
25107;SDS011;13090;53.422;7.670;2023-04-12T02:15:18;5.60;;;1.88;;
25107;SDS011;13090;53.422;7.670;2023-04-12T02:20:21;8.68;;;1.77;;
25107;SDS011;13090;53.422;7.670;2023-04-12T02:25:23;8.13;;;2.10;;
25107;SDS011;13090;53.422;7.670;2023-04-12T02:30:27;8.52;;;2.10;;
25107;SDS011;13090;53.422;7.670;2023-04-12T02:35:29;4.63;;;1.60;;
25107;SDS011;13090;53.422;7.670;2023-04-12T02:40:32;6.55;;;1.75;;
25107;SDS011;13090;53.422;7.670;2023-04-12T02:45:35;6.82;;;2.58;;
25107;SDS011;13090;53.422;7.670;2023-04-12T02:50:38;8.70;;;2.25;;
25107;SDS011;13090;53.422;7.670;2023-04-12T02:55:40;5.22;;;1.98;;
25107;SDS011;13090;53.422;7.670;2023-04-12T03:00:44;6.63;;;2.70;;
25107;SDS011;13090;53.422;7.670;2023-04-12T03:05:46;9.13;;;2.17;;
25107;SDS011;13090;53.422;7.670;2023-04-12T03:10:48;10.00;;;2.13;;
25107;SDS011;13090;53.422;7.670;2023-04-12T03:15:53;10.43;;;2.58;;
25107;SDS011;13090;53.422;7.670;2023-04-12T03:20:56;9.67;;;2.40;;
25107;SDS011;13090;53.422;7.670;2023-04-12T03:25:58;6.97;;;2.38;;
25107;SDS011;13090;53.422;7.670;2023-04-12T03:31:02;5.07;;;1.85;;
25107;SDS011;13090;53.422;7.670;2023-04-12T03:36:04;6.25;;;2.20;;
25107;SDS011;13090;53.422;7.670;2023-04-12T03:41:07;8.68;;;2.50;;
25107;SDS011;13090;53.422;7.670;2023-04-12T03:46:11;6.90;;;2.30;;
25107;SDS011;13090;53.422;7.670;2023-04-12T03:51:13;7.82;;;2.55;;
25107;SDS011;13090;53.422;7.670;2023-04-12T03:56:15;6.43;;;2.50;;
25107;SDS011;13090;53.422;7.670;2023-04-12T04:01:19;5.32;;;2.53;;
25107;SDS011;13090;53.422;7.670;2023-04-12T04:06:21;6.32;;;2.03;;
25107;SDS011;13090;53.422;7.670;2023-04-12T04:11:24;9.55;;;2.42;;
25107;SDS011;13090;53.422;7.670;2023-04-12T04:16:30;8.45;;;2.20;;
25107;SDS011;13090;53.422;7.670;2023-04-12T04:21:32;6.78;;;2.45;;
25107;SDS011;13090;53.422;7.670;2023-04-12T04:26:34;7.53;;;2.38;;
25107;SDS011;13090;53.422;7.670;2023-04-12T04:31:38;7.45;;;2.60;;
25107;SDS011;13090;53.422;7.670;2023-04-12T04:36:40;12.20;;;2.95;;
25107;SDS011;13090;53.422;7.670;2023-04-12T04:41:43;7.00;;;2.60;;
25107;SDS011;13090;53.422;7.670;2023-04-12T04:46:47;12.25;;;3.00;;
25107;SDS011;13090;53.422;7.670;2023-04-12T04:51:49;4.25;;;2.15;;
25107;SDS011;13090;53.422;7.670;2023-04-12T04:56:51;4.25;;;1.95;;
25107;SDS011;13090;53.422;7.670;2023-04-12T05:01:54;7.57;;;2.70;;
25107;SDS011;13090;53.422;7.670;2023-04-12T05:06:57;5.57;;;2.20;;
25107;SDS011;13090;53.422;7.670;2023-04-12T05:11:59;11.57;;;3.72;;
25107;SDS011;13090;53.422;7.670;2023-04-12T05:17:02;9.93;;;3.95;;
25107;SDS011;13090;53.422;7.670;2023-04-12T05:22:05;9.75;;;2.65;;
25107;SDS011;13090;53.422;7.670;2023-04-12T05:27:07;6.93;;;2.38;;
25107;SDS011;13090;53.422;7.670;2023-04-12T05:32:11;4.32;;;2.25;;
25107;SDS011;13090;53.422;7.670;2023-04-12T05:37:15;7.88;;;2.50;;
25107;SDS011;13090;53.422;7.670;2023-04-12T05:42:18;7.60;;;2.40;;
25107;SDS011;13090;53.422;7.670;2023-04-12T05:47:21;7.90;;;2.17;;
25107;SDS011;13090;53.422;7.670;2023-04-12T05:52:24;8.55;;;3.95;;
25107;SDS011;13090;53.422;7.670;2023-04-12T05:57:26;6.70;;;2.53;;
25107;SDS011;13090;53.422;7.670;2023-04-12T06:02:30;8.10;;;2.72;;
25107;SDS011;13090;53.422;7.670;2023-04-12T06:07:32;7.88;;;2.42;;
25107;SDS011;13090;53.422;7.670;2023-04-12T06:12:34;3.80;;;2.08;;
25107;SDS011;13090;53.422;7.670;2023-04-12T06:17:38;9.77;;;2.60;;
25107;SDS011;13090;53.422;7.670;2023-04-12T06:22:40;4.75;;;1.90;;
25107;SDS011;13090;53.422;7.670;2023-04-12T06:27:42;10.48;;;2.20;;
25107;SDS011;13090;53.422;7.670;2023-04-12T06:32:46;7.65;;;2.05;;
25107;SDS011;13090;53.422;7.670;2023-04-12T06:37:48;5.90;;;2.55;;
25107;SDS011;13090;53.422;7.670;2023-04-12T06:42:51;5.50;;;2.10;;
25107;SDS011;13090;53.422;7.670;2023-04-12T06:47:54;7.55;;;2.70;;
25107;SDS011;13090;53.422;7.670;2023-04-12T06:52:56;8.10;;;2.28;;
25107;SDS011;13090;53.422;7.670;2023-04-12T06:57:58;6.82;;;2.17;;
25107;SDS011;13090;53.422;7.670;2023-04-12T07:03:02;7.05;;;2.63;;
25107;SDS011;13090;53.422;7.670;2023-04-12T07:08:06;5.10;;;1.88;;
25107;SDS011;13090;53.422;7.670;2023-04-12T07:13:08;9.40;;;2.55;;
25107;SDS011;13090;53.422;7.670;2023-04-12T07:18:13;8.23;;;2.25;;
25107;SDS011;13090;53.422;7.670;2023-04-12T07:23:17;3.83;;;2.40;;
25107;SDS011;13090;53.422;7.670;2023-04-12T07:28:20;12.43;;;2.58;;
25107;SDS011;13090;53.422;7.670;2023-04-12T07:33:27;11.35;;;2.53;;
25107;SDS011;13090;53.422;7.670;2023-04-12T07:38:29;7.25;;;2.97;;
25107;SDS011;13090;53.422;7.670;2023-04-12T07:43:34;18.90;;;7.55;;
25107;SDS011;13090;53.422;7.670;2023-04-12T07:48:38;14.75;;;5.03;;
25107;SDS011;13090;53.422;7.670;2023-04-12T07:53:40;10.98;;;3.88;;
25107;SDS011;13090;53.422;7.670;2023-04-12T07:58:42;7.07;;;2.65;;
25107;SDS011;13090;53.422;7.670;2023-04-12T08:03:46;5.90;;;2.17;;
25107;SDS011;13090;53.422;7.670;2023-04-12T08:08:50;5.43;;;1.95;;
25107;SDS011;13090;53.422;7.670;2023-04-12T08:13:52;7.07;;;2.22;;
25107;SDS011;13090;53.422;7.670;2023-04-12T08:18:57;6.75;;;2.50;;
25107;SDS011;13090;53.422;7.670;2023-04-12T08:24:01;9.73;;;2.72;;
25107;SDS011;13090;53.422;7.670;2023-04-12T08:29:03;9.75;;;2.60;;
25107;SDS011;13090;53.422;7.670;2023-04-12T08:34:06;4.50;;;2.00;;
25107;SDS011;13090;53.422;7.670;2023-04-12T08:39:09;4.93;;;1.90;;
25107;SDS011;13090;53.422;7.670;2023-04-12T08:44:13;6.82;;;2.13;;
25107;SDS011;13090;53.422;7.670;2023-04-12T08:49:18;4.28;;;2.00;;
25107;SDS011;13090;53.422;7.670;2023-04-12T08:54:21;5.40;;;2.30;;
25107;SDS011;13090;53.422;7.670;2023-04-12T08:59:23;3.92;;;1.77;;
25107;SDS011;13090;53.422;7.670;2023-04-12T09:04:28;4.68;;;2.00;;
25107;SDS011;13090;53.422;7.670;2023-04-12T09:09:41;4.13;;;1.90;;
25107;SDS011;13090;53.422;7.670;2023-04-12T09:14:44;6.72;;;2.03;;
25107;SDS011;13090;53.422;7.670;2023-04-12T09:19:47;6.03;;;2.05;;
25107;SDS011;13090;53.422;7.670;2023-04-12T09:24:50;4.35;;;1.95;;
25107;SDS011;13090;53.422;7.670;2023-04-12T09:29:52;9.23;;;2.33;;
25107;SDS011;13090;53.422;7.670;2023-04-12T09:35:09;5.53;;;1.90;;
25107;SDS011;13090;53.422;7.670;2023-04-12T09:40:12;3.45;;;2.10;;
25107;SDS011;13090;53.422;7.670;2023-04-12T09:45:18;3.92;;;1.67;;
25107;SDS011;13090;53.422;7.670;2023-04-12T09:50:24;3.05;;;1.67;;
25107;SDS011;13090;53.422;7.670;2023-04-12T09:55:28;4.57;;;2.10;;
25107;SDS011;13090;53.422;7.670;2023-04-12T10:00:31;5.18;;;1.77;;
25107;SDS011;13090;53.422;7.670;2023-04-12T10:05:36;4.43;;;2.30;;
25107;SDS011;13090;53.422;7.670;2023-04-12T10:10:40;6.47;;;2.33;;
25107;SDS011;13090;53.422;7.670;2023-04-12T10:15:45;7.05;;;2.53;;
25107;SDS011;13090;53.422;7.670;2023-04-12T10:20:53;5.68;;;2.92;;
25107;SDS011;13090;53.422;7.670;2023-04-12T10:25:59;3.33;;;1.92;;
25107;SDS011;13090;53.422;7.670;2023-04-12T11:04:05;4.03;;;3.10;;
25107;SDS011;13090;53.422;7.670;2023-04-12T11:09:18;10.30;;;4.68;;
25107;SDS011;13090;53.422;7.670;2023-04-12T11:14:24;5.28;;;3.15;;
25107;SDS011;13090;53.422;7.670;2023-04-12T11:19:30;5.90;;;3.60;;
25107;SDS011;13090;53.422;7.670;2023-04-12T11:24:34;5.68;;;2.00;;
25107;SDS011;13090;53.422;7.670;2023-04-12T11:29:39;4.07;;;3.08;;
25107;SDS011;13090;53.422;7.670;2023-04-12T11:34:42;2.60;;;2.40;;
25107;SDS011;13090;53.422;7.670;2023-04-12T11:39:49;5.22;;;2.22;;
25107;SDS011;13090;53.422;7.670;2023-04-12T11:44:53;2.95;;;2.15;;
25107;SDS011;13090;53.422;7.670;2023-04-12T11:50:01;1.98;;;1.67;;
25107;SDS011;13090;53.422;7.670;2023-04-12T11:55:05;2.75;;;2.00;;
25107;SDS011;13090;53.422;7.670;2023-04-12T12:00:10;1.65;;;1.55;;
25107;SDS011;13090;53.422;7.670;2023-04-12T12:05:13;1.70;;;1.60;;
25107;SDS011;13090;53.422;7.670;2023-04-12T12:10:17;1.70;;;1.60;;
25107;SDS011;13090;53.422;7.670;2023-04-12T12:15:38;3.42;;;1.90;;
25107;SDS011;13090;53.422;7.670;2023-04-12T12:20:47;3.60;;;1.95;;
25107;SDS011;13090;53.422;7.670;2023-04-12T12:25:52;2.20;;;2.00;;
25107;SDS011;13090;53.422;7.670;2023-04-12T12:31:17;2.03;;;1.83;;
25107;SDS011;13090;53.422;7.670;2023-04-12T12:36:27;2.60;;;2.17;;
25107;SDS011;13090;53.422;7.670;2023-04-12T12:41:32;2.60;;;2.38;;
25107;SDS011;13090;53.422;7.670;2023-04-12T12:46:35;3.20;;;2.10;;
25107;SDS011;13090;53.422;7.670;2023-04-12T12:51:55;2.35;;;1.90;;
25107;SDS011;13090;53.422;7.670;2023-04-12T12:56:59;2.60;;;2.15;;
25107;SDS011;13090;53.422;7.670;2023-04-12T13:02:01;2.30;;;2.10;;
25107;SDS011;13090;53.422;7.670;2023-04-12T13:07:04;4.93;;;2.35;;
25107;SDS011;13090;53.422;7.670;2023-04-12T13:12:08;2.85;;;1.80;;
25107;SDS011;13090;53.422;7.670;2023-04-12T13:17:10;3.80;;;2.92;;
25107;SDS011;13090;53.422;7.670;2023-04-12T13:22:12;3.80;;;2.45;;
25107;SDS011;13090;53.422;7.670;2023-04-12T13:27:16;3.10;;;2.60;;
25107;SDS011;13090;53.422;7.670;2023-04-12T13:32:18;2.47;;;2.00;;
25107;SDS011;13090;53.422;7.670;2023-04-12T13:37:21;4.05;;;2.33;;
25107;SDS011;13090;53.422;7.670;2023-04-12T13:42:25;3.30;;;2.50;;
25107;SDS011;13090;53.422;7.670;2023-04-12T13:47:29;4.70;;;2.67;;
25107;SDS011;13090;53.422;7.670;2023-04-12T13:52:33;2.80;;;1.90;;
25107;SDS011;13090;53.422;7.670;2023-04-12T13:57:37;3.20;;;2.88;;
25107;SDS011;13090;53.422;7.670;2023-04-12T14:02:39;4.68;;;2.30;;
25107;SDS011;13090;53.422;7.670;2023-04-12T14:07:41;4.90;;;2.53;;
25107;SDS011;13090;53.422;7.670;2023-04-12T14:12:45;2.90;;;2.08;;
25107;SDS011;13090;53.422;7.670;2023-04-12T14:17:47;4.57;;;2.40;;
25107;SDS011;13090;53.422;7.670;2023-04-12T14:22:49;3.05;;;2.17;;
25107;SDS011;13090;53.422;7.670;2023-04-12T14:27:53;5.25;;;2.70;;
25107;SDS011;13090;53.422;7.670;2023-04-12T14:32:58;3.20;;;2.40;;
25107;SDS011;13090;53.422;7.670;2023-04-12T14:38:01;3.95;;;2.25;;
25107;SDS011;13090;53.422;7.670;2023-04-12T14:43:04;4.60;;;2.53;;
25107;SDS011;13090;53.422;7.670;2023-04-12T14:48:06;4.35;;;2.47;;
25107;SDS011;13090;53.422;7.670;2023-04-12T14:53:09;4.57;;;2.22;;
25107;SDS011;13090;53.422;7.670;2023-04-12T14:58:12;4.70;;;1.48;;
25107;SDS011;13090;53.422;7.670;2023-04-12T15:03:14;3.20;;;1.17;;
25107;SDS011;13090;53.422;7.670;2023-04-12T15:08:17;4.30;;;1.20;;
25107;SDS011;13090;53.422;7.670;2023-04-12T15:13:21;4.45;;;1.75;;
25107;SDS011;13090;53.422;7.670;2023-04-12T15:18:29;8.32;;;1.77;;
25107;SDS011;13090;53.422;7.670;2023-04-12T15:23:31;5.70;;;2.13;;
25107;SDS011;13090;53.422;7.670;2023-04-12T15:28:35;5.28;;;1.50;;
25107;SDS011;13090;53.422;7.670;2023-04-12T15:33:37;3.88;;;1.60;;
25107;SDS011;13090;53.422;7.670;2023-04-12T15:38:39;4.78;;;1.70;;
25107;SDS011;13090;53.422;7.670;2023-04-12T15:43:43;8.02;;;3.45;;
25107;SDS011;13090;53.422;7.670;2023-04-12T15:48:45;4.35;;;1.77;;
25107;SDS011;13090;53.422;7.670;2023-04-12T15:53:48;4.65;;;2.03;;
25107;SDS011;13090;53.422;7.670;2023-04-12T15:58:52;4.00;;;1.63;;
25107;SDS011;13090;53.422;7.670;2023-04-12T16:03:55;5.18;;;2.92;;
25107;SDS011;13090;53.422;7.670;2023-04-12T16:08:58;4.55;;;1.90;;
25107;SDS011;13090;53.422;7.670;2023-04-12T16:14:03;4.25;;;1.77;;
25107;SDS011;13090;53.422;7.670;2023-04-12T16:19:06;1.85;;;1.23;;
25107;SDS011;13090;53.422;7.670;2023-04-12T16:24:08;4.13;;;1.40;;
25107;SDS011;13090;53.422;7.670;2023-04-12T16:29:11;4.03;;;1.48;;
25107;SDS011;13090;53.422;7.670;2023-04-12T16:34:13;6.25;;;1.25;;
25107;SDS011;13090;53.422;7.670;2023-04-12T16:39:16;2.17;;;1.15;;
25107;SDS011;13090;53.422;7.670;2023-04-12T16:44:19;5.20;;;1.33;;
25107;SDS011;13090;53.422;7.670;2023-04-12T16:49:22;4.30;;;1.42;;
25107;SDS011;13090;53.422;7.670;2023-04-12T16:54:24;3.83;;;1.33;;
25107;SDS011;13090;53.422;7.670;2023-04-12T16:59:29;4.50;;;1.98;;
25107;SDS011;13090;53.422;7.670;2023-04-12T17:04:32;4.57;;;1.70;;
25107;SDS011;13090;53.422;7.670;2023-04-12T17:09:34;4.40;;;2.00;;
25107;SDS011;13090;53.422;7.670;2023-04-12T17:14:38;4.72;;;2.30;;
25107;SDS011;13090;53.422;7.670;2023-04-12T17:19:41;4.07;;;1.88;;
25107;SDS011;13090;53.422;7.670;2023-04-12T17:24:44;5.75;;;3.00;;
25107;SDS011;13090;53.422;7.670;2023-04-12T17:29:47;5.13;;;1.90;;
25107;SDS011;13090;53.422;7.670;2023-04-12T17:34:49;4.57;;;2.53;;
25107;SDS011;13090;53.422;7.670;2023-04-12T17:39:52;8.32;;;4.65;;
25107;SDS011;13090;53.422;7.670;2023-04-12T17:44:55;6.43;;;3.90;;
25107;SDS011;13090;53.422;7.670;2023-04-12T17:49:57;13.38;;;3.50;;
25107;SDS011;13090;53.422;7.670;2023-04-12T17:55:00;13.23;;;4.78;;
25107;SDS011;13090;53.422;7.670;2023-04-12T18:00:07;12.10;;;4.75;;
25107;SDS011;13090;53.422;7.670;2023-04-12T18:05:10;15.32;;;5.47;;
25107;SDS011;13090;53.422;7.670;2023-04-12T18:10:18;9.38;;;3.25;;
25107;SDS011;13090;53.422;7.670;2023-04-12T18:15:23;7.88;;;3.22;;
25107;SDS011;13090;53.422;7.670;2023-04-12T18:20:25;6.78;;;3.50;;
25107;SDS011;13090;53.422;7.670;2023-04-12T18:25:28;10.05;;;3.63;;
25107;SDS011;13090;53.422;7.670;2023-04-12T18:30:32;11.82;;;3.70;;
25107;SDS011;13090;53.422;7.670;2023-04-12T18:35:36;6.95;;;3.05;;
25107;SDS011;13090;53.422;7.670;2023-04-12T18:40:38;7.53;;;3.08;;
25107;SDS011;13090;53.422;7.670;2023-04-12T18:45:42;7.28;;;3.55;;
25107;SDS011;13090;53.422;7.670;2023-04-12T18:50:45;10.20;;;4.10;;
25107;SDS011;13090;53.422;7.670;2023-04-12T18:55:47;8.45;;;3.70;;
25107;SDS011;13090;53.422;7.670;2023-04-12T19:00:51;11.32;;;4.60;;
25107;SDS011;13090;53.422;7.670;2023-04-12T19:05:55;11.13;;;4.60;;
25107;SDS011;13090;53.422;7.670;2023-04-12T19:10:57;10.23;;;4.15;;
25107;SDS011;13090;53.422;7.670;2023-04-12T19:16:01;9.55;;;3.88;;
25107;SDS011;13090;53.422;7.670;2023-04-12T19:21:03;11.95;;;5.90;;
25107;SDS011;13090;53.422;7.670;2023-04-12T19:26:06;10.70;;;4.80;;
25107;SDS011;13090;53.422;7.670;2023-04-12T19:31:10;11.48;;;4.93;;
25107;SDS011;13090;53.422;7.670;2023-04-12T19:36:12;6.53;;;5.00;;
25107;SDS011;13090;53.422;7.670;2023-04-12T19:41:15;11.73;;;4.75;;
25107;SDS011;13090;53.422;7.670;2023-04-12T19:46:20;12.77;;;4.75;;
25107;SDS011;13090;53.422;7.670;2023-04-12T19:51:22;13.50;;;5.18;;
25107;SDS011;13090;53.422;7.670;2023-04-12T19:56:24;11.15;;;4.95;;
25107;SDS011;13090;53.422;7.670;2023-04-12T20:01:28;12.35;;;4.55;;
25107;SDS011;13090;53.422;7.670;2023-04-12T20:06:30;18.88;;;8.40;;
25107;SDS011;13090;53.422;7.670;2023-04-12T20:11:32;12.18;;;4.60;;
25107;SDS011;13090;53.422;7.670;2023-04-12T20:16:36;9.73;;;4.70;;
25107;SDS011;13090;53.422;7.670;2023-04-12T20:21:39;12.20;;;5.10;;
25107;SDS011;13090;53.422;7.670;2023-04-12T20:26:41;11.70;;;6.75;;
25107;SDS011;13090;53.422;7.670;2023-04-12T20:31:45;16.05;;;8.15;;
25107;SDS011;13090;53.422;7.670;2023-04-12T20:36:47;9.18;;;5.50;;
25107;SDS011;13090;53.422;7.670;2023-04-12T20:41:49;19.45;;;8.85;;
25107;SDS011;13090;53.422;7.670;2023-04-12T20:46:53;27.92;;;13.50;;
25107;SDS011;13090;53.422;7.670;2023-04-12T20:51:55;16.80;;;6.55;;
25107;SDS011;13090;53.422;7.670;2023-04-12T20:56:58;9.63;;;4.43;;
25107;SDS011;13090;53.422;7.670;2023-04-12T21:02:02;12.45;;;5.60;;
25107;SDS011;13090;53.422;7.670;2023-04-12T21:07:06;15.05;;;4.93;;
25107;SDS011;13090;53.422;7.670;2023-04-12T21:12:09;10.10;;;4.95;;
25107;SDS011;13090;53.422;7.670;2023-04-12T21:17:12;11.45;;;4.65;;
25107;SDS011;13090;53.422;7.670;2023-04-12T21:22:15;11.68;;;4.40;;
25107;SDS011;13090;53.422;7.670;2023-04-12T21:27:17;7.97;;;4.10;;
25107;SDS011;13090;53.422;7.670;2023-04-12T21:32:20;9.98;;;4.75;;
25107;SDS011;13090;53.422;7.670;2023-04-12T21:37:22;10.88;;;4.53;;
25107;SDS011;13090;53.422;7.670;2023-04-12T21:42:25;7.10;;;4.25;;
25107;SDS011;13090;53.422;7.670;2023-04-12T21:47:28;6.35;;;4.18;;
25107;SDS011;13090;53.422;7.670;2023-04-12T21:52:31;10.98;;;4.63;;
25107;SDS011;13090;53.422;7.670;2023-04-12T21:57:35;8.40;;;4.25;;
25107;SDS011;13090;53.422;7.670;2023-04-12T22:02:39;9.38;;;4.28;;
25107;SDS011;13090;53.422;7.670;2023-04-12T22:07:41;13.00;;;4.47;;
25107;SDS011;13090;53.422;7.670;2023-04-12T22:12:44;15.32;;;4.70;;
25107;SDS011;13090;53.422;7.670;2023-04-12T22:17:47;16.38;;;6.28;;
25107;SDS011;13090;53.422;7.670;2023-04-12T22:22:49;10.93;;;5.53;;
25107;SDS011;13090;53.422;7.670;2023-04-12T22:27:51;8.32;;;3.65;;
25107;SDS011;13090;53.422;7.670;2023-04-12T22:32:55;6.65;;;3.10;;
25107;SDS011;13090;53.422;7.670;2023-04-12T22:37:58;7.63;;;2.53;;
25107;SDS011;13090;53.422;7.670;2023-04-12T22:43:00;5.38;;;3.00;;
25107;SDS011;13090;53.422;7.670;2023-04-12T22:48:04;6.43;;;2.67;;
25107;SDS011;13090;53.422;7.670;2023-04-12T22:53:06;8.80;;;2.50;;
25107;SDS011;13090;53.422;7.670;2023-04-12T22:58:08;5.18;;;2.60;;
25107;SDS011;13090;53.422;7.670;2023-04-12T23:03:12;7.03;;;2.35;;
25107;SDS011;13090;53.422;7.670;2023-04-12T23:08:14;9.45;;;2.58;;
25107;SDS011;13090;53.422;7.670;2023-04-12T23:13:17;5.90;;;2.60;;
25107;SDS011;13090;53.422;7.670;2023-04-12T23:18:21;4.63;;;2.58;;
25107;SDS011;13090;53.422;7.670;2023-04-12T23:23:23;7.50;;;3.35;;
25107;SDS011;13090;53.422;7.670;2023-04-12T23:28:25;5.13;;;3.20;;
25107;SDS011;13090;53.422;7.670;2023-04-12T23:33:29;7.28;;;3.30;;
25107;SDS011;13090;53.422;7.670;2023-04-12T23:38:31;10.13;;;3.30;;
25107;SDS011;13090;53.422;7.670;2023-04-12T23:43:33;10.95;;;3.65;;
25107;SDS011;13090;53.422;7.670;2023-04-12T23:48:37;11.63;;;3.33;;
25107;SDS011;13090;53.422;7.670;2023-04-12T23:53:39;6.97;;;3.75;;
25107;SDS011;13090;53.422;7.670;2023-04-12T23:58:41;8.07;;;3.97;;
